createdAt,value
2022-09-28T00:00:19.952Z,15.30
2022-09-28T00:02:46.875Z,15.30
2022-09-28T00:05:13.922Z,15.00
2022-09-28T00:07:41.661Z,15.10
2022-09-28T00:10:08.629Z,15.20
2022-09-28T00:12:35.420Z,15.20
2022-09-28T00:15:03.275Z,15.20
2022-09-28T00:17:30.082Z,15.20
2022-09-28T00:19:58.123Z,15.20
2022-09-28T00:22:24.877Z,15.00
2022-09-28T00:24:51.633Z,14.90
2022-09-28T00:27:18.390Z,14.80
2022-09-28T00:29:45.358Z,14.60
2022-09-28T00:32:12.351Z,14.30
2022-09-28T00:34:43.427Z,14.20
2022-09-28T00:37:10.208Z,14.00
2022-09-28T00:39:38.386Z,14.00
2022-09-28T00:42:11.080Z,13.90
2022-09-28T00:44:46.424Z,13.90
2022-09-28T00:47:13.218Z,14.00
2022-09-28T00:49:46.518Z,14.10
2022-09-28T00:52:14.409Z,14.00
2022-09-28T00:54:43.567Z,14.00
2022-09-28T00:57:10.310Z,14.00
2022-09-28T00:59:37.063Z,14.00
2022-09-28T01:02:04.050Z,14.00
2022-09-28T01:04:30.929Z,14.10
2022-09-28T01:06:57.924Z,14.00
2022-09-28T01:09:25.350Z,14.10
2022-09-28T01:11:52.140Z,14.20
2022-09-28T01:14:19.324Z,14.20
2022-09-28T01:17:04.996Z,14.10
2022-09-28T01:19:38.258Z,13.70
2022-09-28T01:22:05.008Z,13.70
2022-09-28T01:24:47.421Z,13.10
2022-09-28T01:27:29.696Z,13.00
2022-09-28T01:29:59.626Z,13.10
2022-09-28T01:32:26.391Z,13.30
2022-09-28T01:34:53.151Z,13.40
2022-09-28T01:37:20.160Z,13.20
2022-09-28T01:39:47.219Z,13.40
2022-09-28T01:42:17.025Z,13.40
2022-09-28T01:44:44.720Z,13.80
2022-09-28T01:47:12.135Z,13.80
2022-09-28T01:49:43.052Z,13.80
2022-09-28T01:52:24.244Z,13.90
2022-09-28T01:54:53.436Z,13.50
2022-09-28T01:57:25.185Z,13.70
2022-09-28T02:00:02.645Z,13.60
2022-09-28T02:02:32.613Z,13.50
2022-09-28T02:05:18.645Z,13.60
2022-09-28T02:07:51.519Z,13.40
2022-09-28T02:10:22.677Z,13.10
2022-09-28T02:12:51.563Z,13.20
2022-09-28T02:15:20.283Z,13.50
2022-09-28T02:17:47.068Z,13.60
2022-09-28T02:20:13.845Z,13.70
2022-09-28T02:22:44.349Z,13.40
2022-09-28T02:25:19.111Z,13.30
2022-09-28T02:27:51.798Z,13.10
2022-09-28T02:30:18.692Z,13.40
2022-09-28T02:32:46.667Z,13.40
2022-09-28T02:35:14.030Z,13.40
2022-09-28T02:37:40.814Z,13.60
2022-09-28T02:40:13.779Z,13.70
2022-09-28T02:42:44.981Z,13.80
2022-09-28T02:45:15.312Z,13.70
2022-09-28T02:48:00.845Z,13.60
2022-09-28T02:50:42.268Z,13.50
2022-09-28T02:53:09.169Z,13.30
2022-09-28T02:55:41.894Z,13.20
2022-09-28T02:58:08.625Z,13.50
2022-09-28T03:00:38.016Z,13.40
2022-09-28T03:03:04.759Z,13.30
2022-09-28T03:05:38.207Z,13.50
2022-09-28T03:08:11.192Z,13.30
2022-09-28T03:10:48.918Z,13.40
2022-09-28T03:13:16.531Z,13.20
2022-09-28T03:15:48.636Z,13.30
2022-09-28T03:18:16.340Z,13.40
2022-09-28T03:20:43.266Z,13.40
2022-09-28T03:23:24.501Z,13.30
2022-09-28T03:25:51.845Z,13.60
2022-09-28T03:28:18.646Z,13.70
2022-09-28T03:30:45.524Z,13.80
2022-09-28T03:33:12.274Z,14.00
2022-09-28T03:35:39.027Z,14.00
2022-09-28T03:38:05.766Z,13.80
2022-09-28T03:40:32.617Z,13.50
2022-09-28T03:43:00.416Z,13.50
2022-09-28T03:45:27.167Z,13.80
2022-09-28T03:47:53.993Z,13.90
2022-09-28T03:50:20.734Z,13.90
2022-09-28T03:52:47.497Z,13.90
2022-09-28T03:55:14.274Z,13.70
2022-09-28T03:57:41.065Z,13.80
2022-09-28T04:00:08.302Z,13.50
2022-09-28T04:02:35.214Z,13.00
2022-09-28T04:05:02.232Z,12.90
2022-09-28T04:07:31.022Z,13.10
2022-09-28T04:09:58.281Z,13.20
2022-09-28T04:12:25.041Z,13.30
2022-09-28T04:14:51.802Z,13.20
2022-09-28T04:17:18.547Z,13.20
2022-09-28T04:19:45.599Z,13.00
2022-09-28T04:22:12.359Z,13.00
2022-09-28T04:24:39.793Z,13.00
2022-09-28T04:27:24.990Z,13.20
2022-09-28T04:29:51.718Z,13.20
2022-09-28T04:32:18.495Z,13.10
2022-09-28T04:34:45.423Z,12.70
2022-09-28T04:37:12.167Z,12.90
2022-09-28T04:39:46.280Z,13.10
2022-09-28T04:42:15.161Z,13.10
2022-09-28T04:44:41.906Z,13.20
2022-09-28T04:47:08.688Z,13.20
2022-09-28T04:49:38.565Z,13.20
2022-09-28T04:52:05.529Z,13.10
2022-09-28T04:54:32.277Z,12.70
2022-09-28T04:56:58.996Z,12.40
2022-09-28T04:59:26.107Z,12.20
2022-09-28T05:01:54.218Z,12.10
2022-09-28T05:04:25.664Z,12.20
2022-09-28T05:06:52.861Z,12.50
2022-09-28T05:09:19.656Z,12.70
2022-09-28T05:11:46.402Z,12.80
2022-09-28T05:14:13.248Z,12.90
2022-09-28T05:16:40.140Z,12.80
2022-09-28T05:19:07.082Z,12.60
2022-09-28T05:21:33.849Z,12.60
2022-09-28T05:24:00.684Z,12.70
2022-09-28T05:26:27.423Z,12.90
2022-09-28T05:28:54.215Z,12.90
2022-09-28T05:31:21.075Z,13.00
2022-09-28T05:33:47.893Z,13.20
2022-09-28T05:36:14.889Z,13.40
2022-09-28T05:38:41.655Z,13.50
2022-09-28T05:41:08.627Z,13.50
2022-09-28T05:43:36.434Z,13.40
2022-09-28T05:46:03.195Z,13.40
2022-09-28T05:48:32.469Z,13.60
2022-09-28T05:50:59.783Z,13.70
2022-09-28T05:53:26.673Z,13.80
2022-09-28T05:55:53.461Z,13.60
2022-09-28T05:58:20.306Z,13.50
2022-09-28T06:00:47.083Z,13.40
2022-09-28T06:03:14.146Z,13.50
2022-09-28T06:05:40.982Z,13.50
2022-09-28T06:08:08.535Z,13.60
2022-09-28T06:10:35.437Z,13.80
2022-09-28T06:13:02.240Z,14.00
2022-09-28T06:15:29.830Z,14.10
2022-09-28T06:18:03.532Z,14.40
2022-09-28T06:20:31.389Z,14.50
2022-09-28T06:22:58.180Z,14.80
2022-09-28T06:25:25.958Z,14.80
2022-09-28T06:28:02.829Z,14.90
2022-09-28T06:30:31.421Z,14.90
2022-09-28T06:32:58.542Z,15.00
2022-09-28T06:35:26.152Z,15.00
2022-09-28T06:37:53.016Z,15.20
2022-09-28T06:40:20.431Z,14.90
2022-09-28T06:42:57.296Z,14.80
2022-09-28T06:45:25.453Z,14.90
2022-09-28T06:47:59.032Z,15.00
2022-09-28T06:50:32.434Z,15.30
2022-09-28T06:52:59.429Z,14.50
2022-09-28T06:55:26.295Z,14.10
2022-09-28T06:57:59.521Z,14.10
2022-09-28T07:00:28.232Z,14.30
2022-09-28T07:02:55.053Z,14.80
2022-09-28T07:05:27.113Z,15.00
2022-09-28T07:07:55.361Z,15.70
2022-09-28T07:10:26.044Z,16.30
2022-09-28T07:12:52.887Z,15.90
2022-09-28T07:15:19.984Z,15.80
2022-09-28T07:17:59.085Z,16.10
2022-09-28T07:20:28.813Z,15.80
2022-09-28T07:23:09.480Z,16.00
2022-09-28T07:25:45.620Z,15.90
2022-09-28T07:28:12.563Z,16.10
2022-09-28T07:30:39.386Z,16.20
2022-09-28T07:33:06.667Z,16.10
2022-09-28T07:35:34.504Z,16.20
2022-09-28T07:38:03.455Z,16.30
2022-09-28T07:40:50.741Z,16.50
2022-09-28T07:43:20.776Z,16.80
2022-09-28T07:45:48.229Z,17.00
2022-09-28T07:48:16.447Z,16.90
2022-09-28T07:50:43.886Z,16.80
2022-09-28T07:53:10.976Z,16.90
2022-09-28T07:55:37.700Z,17.50
2022-09-28T07:58:04.536Z,17.70
2022-09-28T08:00:34.306Z,17.70
2022-09-28T08:03:01.630Z,17.60
2022-09-28T08:05:31.498Z,17.80
2022-09-28T08:08:02.300Z,18.00
2022-09-28T08:10:29.244Z,18.10
2022-09-28T08:13:02.101Z,18.30
2022-09-28T08:15:38.511Z,18.30
2022-09-28T08:18:07.664Z,19.10
2022-09-28T08:20:53.154Z,18.80
2022-09-28T08:23:27.409Z,18.50
2022-09-28T08:25:54.320Z,18.50
2022-09-28T08:28:21.994Z,18.70
2022-09-28T08:30:49.177Z,18.60
2022-09-28T08:33:17.926Z,18.30
2022-09-28T08:35:47.458Z,18.10
2022-09-28T08:38:14.396Z,18.40
2022-09-28T08:40:49.337Z,19.00
2022-09-28T08:43:36.221Z,19.60
2022-09-28T08:46:03.115Z,20.20
2022-09-28T08:48:56.201Z,20.20
2022-09-28T08:51:29.260Z,20.60
2022-09-28T08:54:14.592Z,20.60
2022-09-28T08:56:49.354Z,20.30
2022-09-28T08:59:20.349Z,21.30
2022-09-28T09:01:51.025Z,21.50
2022-09-28T09:04:20.705Z,22.10
2022-09-28T09:06:47.590Z,22.00
2022-09-28T09:09:33.305Z,22.00
2022-09-28T09:12:09.188Z,24.00
2022-09-28T09:14:41.932Z,24.30
2022-09-28T09:17:15.427Z,25.10
2022-09-28T09:19:55.274Z,25.40
2022-09-28T09:22:41.163Z,26.70
2022-09-28T09:25:20.596Z,26.50
2022-09-28T09:27:59.591Z,28.50
2022-09-28T09:30:29.824Z,28.60
2022-09-28T09:33:06.018Z,27.50
2022-09-28T09:35:37.675Z,24.80
2022-09-28T09:38:10.564Z,24.20
2022-09-28T09:40:37.363Z,22.90
2022-09-28T09:43:04.387Z,22.40
2022-09-28T09:45:50.017Z,22.30
2022-09-28T09:48:21.891Z,22.40
2022-09-28T09:50:53.696Z,22.20
2022-09-28T09:53:29.719Z,21.90
2022-09-28T09:55:57.562Z,21.70
2022-09-28T09:58:27.070Z,21.20
2022-09-28T10:00:54.435Z,21.60
2022-09-28T10:03:28.389Z,22.10
2022-09-28T10:06:06.380Z,21.90
2022-09-28T10:08:34.813Z,21.40
2022-09-28T10:11:13.893Z,21.50
2022-09-28T10:13:41.377Z,22.00
2022-09-28T10:16:08.154Z,21.90
2022-09-28T10:18:34.950Z,23.70
2022-09-28T10:21:02.064Z,24.90
2022-09-28T10:23:34.037Z,26.20
2022-09-28T10:26:03.251Z,26.70
2022-09-28T10:28:40.173Z,27.40
2022-09-28T10:31:27.169Z,27.00
2022-09-28T10:33:53.919Z,27.80
2022-09-28T10:36:20.899Z,25.40
2022-09-28T10:38:47.917Z,25.40
2022-09-28T10:41:16.757Z,24.60
2022-09-28T10:44:06.145Z,25.10
2022-09-28T10:46:36.354Z,25.00
2022-09-28T10:49:04.217Z,24.60
2022-09-28T10:51:44.068Z,24.60
2022-09-28T10:54:15.497Z,24.00
2022-09-28T10:56:42.279Z,25.90
2022-09-28T10:59:25.215Z,27.00
2022-09-28T11:01:59.124Z,27.50
2022-09-28T11:04:29.526Z,27.40
2022-09-28T11:09:30.840Z,28.70
2022-09-28T11:11:58.435Z,28.50
2022-09-28T11:14:25.157Z,28.40
2022-09-28T11:17:11.872Z,27.70
2022-09-28T11:19:38.722Z,25.80
2022-09-28T11:22:20.366Z,24.30
2022-09-28T11:24:48.259Z,23.90
2022-09-28T11:27:27.914Z,23.20
2022-09-28T11:29:58.236Z,23.10
2022-09-28T11:32:45.260Z,23.00
2022-09-28T11:35:19.609Z,22.90
2022-09-28T11:37:46.378Z,22.80
2022-09-28T11:40:31.673Z,22.80
2022-09-28T11:43:02.499Z,22.90
2022-09-28T11:45:32.362Z,22.70
2022-09-28T11:48:00.003Z,22.90
2022-09-28T11:50:26.751Z,23.00
2022-09-28T11:52:59.593Z,22.10
2022-09-28T11:55:53.113Z,21.90
2022-09-28T11:58:25.866Z,22.30
2022-09-28T12:01:14.298Z,22.80
2022-09-28T12:03:45.299Z,22.60
2022-09-28T12:06:15.788Z,22.70
2022-09-28T12:08:54.205Z,23.00
2022-09-28T12:11:20.978Z,22.60
2022-09-28T12:13:48.299Z,22.50
2022-09-28T12:16:45.703Z,22.40
2022-09-28T12:19:08.961Z,22.30
2022-09-28T12:21:55.395Z,22.50
2022-09-28T12:24:28.728Z,22.60
2022-09-28T12:26:55.680Z,22.50
2022-09-28T12:29:41.276Z,22.40
2022-09-28T12:32:13.118Z,22.30
2022-09-28T12:34:43.415Z,22.80
2022-09-28T12:37:23.372Z,23.30
2022-09-28T12:40:02.412Z,23.20
2022-09-28T12:42:29.453Z,23.30
2022-09-28T12:45:02.328Z,22.60
2022-09-28T12:47:29.044Z,22.00
2022-09-28T12:52:53.148Z,22.80
2022-09-28T12:55:23.203Z,23.30
2022-09-28T12:57:50.008Z,23.40
2022-09-28T13:00:17.806Z,23.70
2022-09-28T13:02:47.669Z,23.70
2022-09-28T13:05:34.621Z,24.00
2022-09-28T13:08:12.347Z,24.10
2022-09-28T13:10:57.962Z,23.70
2022-09-28T13:13:43.055Z,22.80
2022-09-28T13:16:24.969Z,22.90
2022-09-28T13:18:54.558Z,22.90
2022-09-28T13:21:29.268Z,22.70
2022-09-28T13:24:08.685Z,22.20
2022-09-28T13:26:44.934Z,22.20
2022-09-28T13:29:14.317Z,22.20
2022-09-28T13:31:44.999Z,21.70
2022-09-28T13:34:13.732Z,21.80
2022-09-28T13:36:43.442Z,22.10
2022-09-28T13:39:31.327Z,22.30
2022-09-28T13:42:00.116Z,22.10
2022-09-28T13:44:39.565Z,22.10
2022-09-28T13:47:22.757Z,22.00
2022-09-28T13:50:08.262Z,22.00
2022-09-28T13:52:35.031Z,21.90
2022-09-28T13:55:10.943Z,22.10
2022-09-28T13:58:00.808Z,22.20
2022-09-28T14:00:37.161Z,22.50
2022-09-28T14:03:11.196Z,22.30
2022-09-28T14:05:45.534Z,22.60
2022-09-28T14:08:28.169Z,22.80
2022-09-28T14:10:55.626Z,22.80
2022-09-28T14:13:40.721Z,22.20
2022-09-28T14:16:23.276Z,22.30
2022-09-28T14:18:51.880Z,22.60
2022-09-28T14:21:18.647Z,22.50
2022-09-28T14:24:24.063Z,22.30
2022-09-28T14:27:03.578Z,22.30
2022-09-28T14:29:31.422Z,22.40
2022-09-28T14:32:20.450Z,22.30
2022-09-28T14:34:48.947Z,22.20
2022-09-28T14:37:43.030Z,22.20
2022-09-28T14:40:38.515Z,22.40
2022-09-28T14:43:28.232Z,22.30
2022-09-28T14:46:14.692Z,22.00
2022-09-28T14:48:47.050Z,21.80
2022-09-28T14:51:38.193Z,22.10
2022-09-28T14:54:08.299Z,21.90
2022-09-28T14:56:46.084Z,21.80
2022-09-28T14:59:26.375Z,21.70
2022-09-28T15:01:53.530Z,21.70
2022-09-28T15:04:22.672Z,21.80
2022-09-28T15:06:55.410Z,21.70
2022-09-28T15:09:55.404Z,21.90
2022-09-28T15:12:29.116Z,21.80
2022-09-28T15:15:07.236Z,21.30
2022-09-28T15:17:43.458Z,21.50
2022-09-28T15:20:38.833Z,21.10
2022-09-28T15:23:07.189Z,21.40
2022-09-28T15:25:38.763Z,21.60
2022-09-28T15:28:22.682Z,21.60
2022-09-28T15:30:51.657Z,21.40
2022-09-28T15:33:53.539Z,21.40
2022-09-28T15:36:36.178Z,21.50
2022-09-28T15:39:04.356Z,21.50
2022-09-28T15:41:41.103Z,21.40
2022-09-28T15:44:29.904Z,21.10
2022-09-28T15:47:15.372Z,20.90
2022-09-28T15:50:01.377Z,20.60
2022-09-28T15:55:47.729Z,20.20
2022-09-28T15:58:26.183Z,20.40
2022-09-28T16:01:19.784Z,20.50
2022-09-28T16:04:03.671Z,20.40
2022-09-28T16:06:37.029Z,20.50
2022-09-28T16:09:04.299Z,20.50
2022-09-28T16:11:44.904Z,20.40
2022-09-28T16:14:32.573Z,20.20
2022-09-28T16:17:11.798Z,20.30
2022-09-28T16:19:53.497Z,20.00
2022-09-28T16:22:34.688Z,19.90
2022-09-28T16:25:05.172Z,20.20
2022-09-28T16:27:43.995Z,20.00
2022-09-28T16:30:24.084Z,19.90
2022-09-28T16:32:57.075Z,19.80
2022-09-28T16:35:53.481Z,19.50
2022-09-28T16:38:20.731Z,19.50
2022-09-28T16:40:55.326Z,19.40
2022-09-28T16:43:34.657Z,19.40
2022-09-28T16:46:12.007Z,19.60
2022-09-28T16:49:06.258Z,19.50
2022-09-28T16:51:33.939Z,19.60
2022-09-28T16:54:28.538Z,19.60
2022-09-28T16:57:01.999Z,19.60
2022-09-28T16:59:33.330Z,19.60
2022-09-28T17:02:08.937Z,19.50
2022-09-28T17:04:37.251Z,19.60
2022-09-28T17:07:06.815Z,19.60
2022-09-28T17:09:34.199Z,19.60
2022-09-28T17:12:14.896Z,19.40
2022-09-28T17:14:45.870Z,19.30
2022-09-28T17:17:17.199Z,19.10
2022-09-28T17:19:46.936Z,19.00
2022-09-28T17:22:22.864Z,18.80
2022-09-28T17:24:50.119Z,18.80
2022-09-28T17:27:17.126Z,18.80
2022-09-28T17:29:44.073Z,18.90
2022-09-28T17:32:16.909Z,18.80
2022-09-28T17:34:55.865Z,18.90
2022-09-28T17:37:30.361Z,18.80
2022-09-28T17:40:07.874Z,18.80
2022-09-28T17:42:34.786Z,18.90
2022-09-28T17:45:06.487Z,18.90
2022-09-28T17:47:37.819Z,18.80
2022-09-28T17:50:11.277Z,18.80
2022-09-28T17:52:44.348Z,18.80
2022-09-28T17:55:13.808Z,18.90
2022-09-28T17:57:43.175Z,18.80
2022-09-28T18:00:11.623Z,18.70
2022-09-28T18:02:57.022Z,18.70
2022-09-28T18:05:25.670Z,18.50
2022-09-28T18:08:14.797Z,18.50
2022-09-28T18:10:48.006Z,18.30
2022-09-28T18:13:18.444Z,18.20
2022-09-28T18:15:46.705Z,18.30
2022-09-28T18:18:13.602Z,18.30
2022-09-28T18:20:48.157Z,18.40
2022-09-28T18:23:16.923Z,18.40
2022-09-28T18:25:44.975Z,18.20
2022-09-28T18:28:17.368Z,18.20
2022-09-28T18:30:44.820Z,18.10
2022-09-28T18:33:14.557Z,18.00
2022-09-28T18:35:54.021Z,18.00
2022-09-28T18:38:25.153Z,17.80
2022-09-28T18:40:56.974Z,17.80
2022-09-28T18:43:26.091Z,17.60
2022-09-28T18:45:58.173Z,17.40
2022-09-28T18:48:30.961Z,17.60
2022-09-28T18:50:59.304Z,17.70
2022-09-28T18:53:28.540Z,17.80
2022-09-28T18:56:04.424Z,17.80
2022-09-28T18:59:06.795Z,17.70
2022-09-28T19:01:38.156Z,17.50
2022-09-28T19:04:14.421Z,17.00
2022-09-28T19:06:44.734Z,17.00
2022-09-28T19:09:14.619Z,17.00
2022-09-28T19:11:43.969Z,17.10
2022-09-28T19:14:20.428Z,17.30
2022-09-28T19:16:49.725Z,17.10
2022-09-28T19:19:17.192Z,17.20
2022-09-28T19:21:47.688Z,17.20
2022-09-28T19:24:16.975Z,17.20
2022-09-28T19:26:47.165Z,17.20
2022-09-28T19:29:23.330Z,17.30
2022-09-28T19:31:50.294Z,16.90
2022-09-28T19:34:24.757Z,16.70
2022-09-28T19:36:57.917Z,16.70
2022-09-28T19:39:27.175Z,16.70
2022-09-28T19:41:54.880Z,16.60
2022-09-28T19:44:28.756Z,16.50
2022-09-28T19:47:01.826Z,16.50
2022-09-28T19:49:33.191Z,16.50
2022-09-28T19:52:16.558Z,16.40
2022-09-28T19:54:44.642Z,16.60
2022-09-28T19:57:12.063Z,16.60
2022-09-28T19:59:52.394Z,16.70
2022-09-28T20:02:19.787Z,16.80
2022-09-28T20:04:48.694Z,16.70
2022-09-28T20:07:15.657Z,16.80
2022-09-28T20:09:45.935Z,16.80
2022-09-28T20:12:12.771Z,16.80
2022-09-28T20:14:41.662Z,16.90
2022-09-28T20:17:17.234Z,16.90
2022-09-28T20:19:50.918Z,16.90
2022-09-28T20:22:24.489Z,16.80
2022-09-28T20:24:53.713Z,16.70
2022-09-28T20:27:25.473Z,16.70
2022-09-28T20:29:59.916Z,16.90
2022-09-28T20:32:29.256Z,16.80
2022-09-28T20:34:58.488Z,16.70
2022-09-28T20:37:27.676Z,16.60
2022-09-28T20:39:54.715Z,16.70
2022-09-28T20:42:33.265Z,16.50
2022-09-28T20:45:00.291Z,16.40
2022-09-28T20:47:30.184Z,16.70
2022-09-28T20:49:57.149Z,16.30
2022-09-28T20:52:24.079Z,16.50
2022-09-28T20:54:50.976Z,16.60
2022-09-28T20:57:17.781Z,16.60
2022-09-28T20:59:45.003Z,16.60
2022-09-28T21:02:15.711Z,16.50
2022-09-28T21:04:43.015Z,16.40
2022-09-28T21:07:10.287Z,16.60
2022-09-28T21:09:40.574Z,16.40
2022-09-28T21:12:10.985Z,16.30
2022-09-28T21:14:50.768Z,16.40
2022-09-28T21:17:23.885Z,16.40
2022-09-28T21:19:53.693Z,16.50
2022-09-28T21:22:24.525Z,16.50
2022-09-28T21:24:59.350Z,16.30
2022-09-28T21:27:28.903Z,16.50
2022-09-28T21:29:58.406Z,16.60
2022-09-28T21:32:27.962Z,16.70
2022-09-28T21:35:13.043Z,16.70
2022-09-28T21:37:44.851Z,16.50
2022-09-28T21:40:11.850Z,16.60
2022-09-28T21:42:38.718Z,16.50
2022-09-28T21:45:11.409Z,16.50
2022-09-28T21:47:43.623Z,16.20
2022-09-28T21:50:13.359Z,16.20
2022-09-28T21:52:43.045Z,16.50
2022-09-28T21:55:16.178Z,16.30
2022-09-28T21:57:44.698Z,16.40
2022-09-28T22:00:14.804Z,16.50
2022-09-28T22:02:43.705Z,16.50
2022-09-28T22:05:17.061Z,16.60
2022-09-28T22:07:44.372Z,16.60
2022-09-28T22:10:13.963Z,16.40
2022-09-28T22:12:45.677Z,16.40
2022-09-28T22:15:19.421Z,16.40
2022-09-28T22:17:49.766Z,16.40
2022-09-28T22:20:17.150Z,16.50
2022-09-28T22:22:49.002Z,16.40
2022-09-28T22:25:18.579Z,16.60
2022-09-28T22:27:50.868Z,16.50
2022-09-28T22:30:17.694Z,16.60
2022-09-28T22:32:44.469Z,16.60
2022-09-28T22:35:14.747Z,16.70
2022-09-28T22:37:43.898Z,16.80
2022-09-28T22:40:13.706Z,16.70
2022-09-28T22:42:46.259Z,16.60
2022-09-28T22:45:15.460Z,16.60
2022-09-28T22:47:44.870Z,16.50
2022-09-28T22:50:17.099Z,16.50
2022-09-28T22:52:44.242Z,16.40
2022-09-28T22:55:14.235Z,16.50
2022-09-28T22:57:50.836Z,16.40
2022-09-28T23:00:27.966Z,16.20
2022-09-28T23:02:55.041Z,16.50
2022-09-28T23:05:22.000Z,16.30
2022-09-28T23:07:48.783Z,16.30
2022-09-28T23:10:15.686Z,16.30
2022-09-28T23:12:42.417Z,16.50
2022-09-28T23:15:09.511Z,16.30
2022-09-28T23:17:36.251Z,16.40
2022-09-28T23:20:03.116Z,16.40
2022-09-28T23:22:29.967Z,16.50
2022-09-28T23:24:56.697Z,16.30
2022-09-28T23:27:23.450Z,16.10
2022-09-28T23:29:52.705Z,16.20
2022-09-28T23:32:19.464Z,16.20
2022-09-28T23:34:46.223Z,16.10
2022-09-28T23:37:12.971Z,16.10
2022-09-28T23:39:39.808Z,16.20
2022-09-28T23:42:06.536Z,16.20
2022-09-28T23:44:33.282Z,16.00
2022-09-28T23:47:00.333Z,16.10
2022-09-28T23:49:27.114Z,16.10
2022-09-28T23:51:56.189Z,16.00
2022-09-28T23:54:22.978Z,16.00
2022-09-28T23:56:49.706Z,16.20
2022-09-28T23:59:16.468Z,16.00
